Time;durP1;ratioP1;P1;durP2;ratioP2;P2;SDS_P1;SDS_P2;PMS_P1;PMS_P2;Temp;Humidity;BMP_temperature;BMP_pressure;BME280_temperature;BME280_humidity;BME280_pressure;Samples;Min_cycle;Max_cycle;Signal;HPM_P1;HPM_P2
2022/06/01 00:00:20;;;;;;;3.10;2.90;;;17.00;47.70;;;;;;20429;6861;308567;-80
2022/06/01 00:02:47;;;;;;;3.27;3.00;;;17.20;48.50;;;;;;20434;6861;296589;-81
2022/06/01 00:05:13;;;;;;;3.07;2.90;;;17.60;48.20;;;;;;20489;6861;308299;-81
2022/06/01 00:07:38;;;;;;;3.35;3.05;;;17.90;47.70;;;;;;20482;6861;279119;-81
2022/06/01 00:10:04;;;;;;;3.17;2.87;;;18.10;47.40;;;;;;20490;6861;310909;-81
2022/06/01 00:12:29;;;;;;;3.10;2.90;;;18.20;47.10;;;;;;20688;6861;117483;-79
2022/06/01 00:14:56;;;;;;;3.10;2.90;;;17.90;47.80;;;;;;20489;6861;310642;-79
2022/06/01 00:17:21;;;;;;;3.10;2.90;;;17.90;47.50;;;;;;20489;6861;317897;-80
2022/06/01 00:19:48;;;;;;;3.00;2.80;;;18.10;47.50;;;;;;20469;6861;309114;-80
2022/06/01 00:22:17;;;;;;;2.63;2.53;;;18.20;47.20;;;;;;20682;6861;120594;-80
2022/06/01 00:24:39;;;;;;;2.70;2.50;;;18.00;47.10;;;;;;20671;6860;117657;-80
2022/06/01 00:27:06;;;;;;;2.90;2.70;;;17.60;47.40;;;;;;20478;6860;289816;-80
2022/06/01 00:29:32;;;;;;;3.10;2.90;;;17.70;47.80;;;;;;20706;6856;117519;-80
2022/06/01 00:31:58;;;;;;;2.97;2.78;;;17.60;47.60;;;;;;20508;6856;310039;-79
2022/06/01 00:34:24;;;;;;;2.80;2.60;;;17.70;48.10;;;;;;20650;6871;119464;-79
2022/06/01 00:36:50;;;;;;;3.13;2.93;;;17.30;48.00;;;;;;20708;6857;118139;-80
2022/06/01 00:39:16;;;;;;;3.00;2.80;;;17.30;48.00;;;;;;20715;6859;118882;-81
2022/06/01 00:41:41;;;;;;;3.20;3.00;;;17.10;48.30;;;;;;20507;6859;307959;-81
2022/06/01 00:44:07;;;;;;;4.00;3.03;;;17.30;49.10;;;;;;20495;6860;278298;-81
2022/06/01 00:46:33;;;;;;;3.53;2.70;;;17.50;48.40;;;;;;20693;6860;128312;-80
2022/06/01 00:49:02;;;;;;;2.70;2.60;;;17.50;48.40;;;;;;20708;6860;118663;-80
2022/06/01 00:51:28;;;;;;;2.77;2.67;;;17.30;48.60;;;;;;20576;6860;118930;-81
2022/06/01 00:53:53;;;;;;;2.70;2.50;;;17.10;48.70;;;;;;20488;6860;278529;-80
2022/06/01 00:56:19;;;;;;;3.00;2.80;;;17.70;48.30;;;;;;20464;6860;338047;-79
2022/06/01 00:58:45;;;;;;;2.70;2.60;;;17.70;48.20;;;;;;20692;6860;118655;-81
2022/06/01 01:01:11;;;;;;;2.97;2.70;;;17.60;47.80;;;;;;20456;6860;294890;-80
2022/06/01 01:03:36;;;;;;;2.70;2.60;;;17.70;48.00;;;;;;20694;6860;120494;-80
2022/06/01 01:06:15;;;;;;;2.87;2.67;;;17.60;47.80;;;;;;20472;6860;308764;-81
2022/06/01 01:08:41;;;;;;;2.93;2.70;;;17.60;48.00;;;;;;20451;6867;280084;-80
2022/06/01 01:11:06;;;;;;;2.53;2.43;;;17.80;47.60;;;;;;20723;6852;120282;-80
2022/06/01 01:13:32;;;;;;;2.80;2.60;;;17.70;47.60;;;;;;20487;6852;338430;-80
2022/06/01 01:15:58;;;;;;;2.73;2.57;;;17.70;48.00;;;;;;20716;6852;119675;-80
2022/06/01 01:18:23;;;;;;;2.78;2.65;;;17.50;47.90;;;;;;20659;6859;120555;-80
2022/06/01 01:20:54;;;;;;;2.77;2.57;;;17.20;48.10;;;;;;20467;6852;309608;-80
2022/06/01 01:23:18;;;;;;;2.60;2.50;;;17.30;48.30;;;;;;20676;6852;119976;-80
2022/06/01 01:25:43;;;;;;;2.70;2.50;;;17.20;48.20;;;;;;20466;6859;305685;-80
2022/06/01 01:28:09;;;;;;;2.62;2.47;;;17.40;48.30;;;;;;20679;6859;118375;-81
2022/06/01 01:30:38;;;;;;;2.90;2.60;;;17.30;48.10;;;;;;20454;6864;311839;-81
2022/06/01 01:33:07;;;;;;;2.50;2.40;;;17.30;48.40;;;;;;20715;6859;120789;-81
2022/06/01 01:35:32;;;;;;;2.80;2.60;;;17.20;48.20;;;;;;20448;6875;279687;-80
2022/06/01 01:37:59;;;;;;;2.70;2.60;;;17.30;48.20;;;;;;20468;6869;279101;-80
2022/06/01 01:40:25;;;;;;;2.93;2.83;;;17.30;48.20;;;;;;20616;6879;120095;-81
2022/06/01 01:42:50;;;;;;;2.90;2.80;;;17.20;48.20;;;;;;20448;6877;308276;-82
2022/06/01 01:45:25;;;;;;;3.00;2.83;;;17.10;48.50;;;;;;20660;6875;123266;-81
2022/06/01 01:47:50;;;;;;;4.32;3.92;;;16.90;48.50;;;;;;20444;6876;280000;-82
2022/06/01 01:50:16;;;;;;;3.40;3.20;;;16.90;48.90;;;;;;20618;6867;118854;-81
2022/06/01 01:52:42;;;;;;;3.83;3.63;;;16.80;48.90;;;;;;20472;6865;279804;-81
2022/06/01 01:55:23;;;;;;;3.43;3.23;;;16.80;49.30;;;;;;20655;6873;117432;-81
2022/06/01 01:57:56;;;;;;;3.90;3.60;;;16.70;49.20;;;;;;20399;6881;282345;-81
2022/06/01 02:00:24;;;;;;;3.90;3.60;;;16.80;49.40;;;;;;20452;6862;309221;-81
2022/06/01 02:02:50;;;;;;;3.00;2.90;;;17.00;48.70;;;;;;20694;6858;120101;-80
2022/06/01 02:08:10;;;;;;;3.30;3.00;;;16.80;49.10;;;;;;20709;6860;117761;-80
2022/06/01 02:13:21;;;;;;;3.20;3.07;;;16.50;49.40;;;;;;20688;6867;121072;-80
2022/06/01 02:15:48;;;;;;;3.70;3.50;;;16.40;50.00;;;;;;20486;6861;338015;-79
2022/06/01 02:18:15;;;;;;;3.50;3.30;;;16.40;49.90;;;;;;20482;6861;334006;-82
2022/06/01 02:20:44;;;;;;;3.40;3.20;;;16.70;49.60;;;;;;20179;6850;278973;-80
2022/06/01 02:23:11;;;;;;;3.13;2.97;;;16.80;49.10;;;;;;20728;6850;117186;-82
2022/06/01 02:25:39;;;;;;;3.65;3.37;;;16.60;49.00;;;;;;20520;6850;308358;-81
2022/06/01 02:28:04;;;;;;;3.50;3.30;;;16.60;49.30;;;;;;20485;6850;280869;-79
2022/06/01 02:30:36;;;;;;;3.20;3.00;;;16.80;49.10;;;;;;20655;6867;119220;-80
2022/06/01 02:33:02;;;;;;;3.63;3.43;;;16.60;49.10;;;;;;20435;6882;282277;-80
2022/06/01 02:35:28;;;;;;;3.50;3.30;;;16.80;49.20;;;;;;20482;6865;281394;-81
2022/06/01 02:37:54;;;;;;;3.30;3.10;;;16.70;49.10;;;;;;20676;6865;118732;-80
2022/06/01 02:40:19;;;;;;;3.00;2.80;;;16.50;49.20;;;;;;20616;6877;122408;-80
2022/06/01 02:42:49;;;;;;;3.37;3.17;;;16.20;49.60;;;;;;20648;6864;122065;-80
2022/06/01 02:45:13;;;;;;;3.40;3.20;;;15.90;50.00;;;;;;20462;6865;309256;-80
2022/06/01 02:47:39;;;;;;;3.40;3.20;;;16.10;50.20;;;;;;20655;6867;117530;-80
2022/06/01 02:50:06;;;;;;;3.57;3.37;;;16.20;50.00;;;;;;20402;6882;312912;-81
2022/06/01 02:52:31;;;;;;;3.37;3.17;;;16.10;49.90;;;;;;20650;6869;117273;-80
2022/06/01 02:54:57;;;;;;;3.43;3.23;;;16.10;49.70;;;;;;20455;6873;311981;-81
2022/06/01 02:57:23;;;;;;;3.22;3.03;;;16.20;49.60;;;;;;20715;6859;117302;-80
2022/06/01 02:59:50;;;;;;;3.20;3.00;;;16.20;49.60;;;;;;20697;6859;118266;-80
2022/06/01 03:02:16;;;;;;;3.53;3.08;;;15.90;49.90;;;;;;20669;6865;123113;-80
2022/06/01 03:04:42;;;;;;;3.53;3.40;;;15.70;50.80;;;;;;20695;6861;118814;-80
2022/06/01 03:07:07;;;;;;;4.27;4.07;;;15.50;50.40;;;;;;20651;6876;120978;-80
2022/06/01 03:09:32;;;;;;;4.37;3.70;;;15.40;50.70;;;;;;20495;6859;310013;-80
2022/06/01 03:11:58;;;;;;;4.10;3.90;;;15.70;50.90;;;;;;20689;6859;117737;-81
2022/06/01 03:14:23;;;;;;;4.55;4.30;;;15.70;50.40;;;;;;20465;6859;308091;-83
2022/06/01 03:16:49;;;;;;;4.07;3.77;;;15.90;50.30;;;;;;20708;6859;117708;-80
2022/06/01 03:19:15;;;;;;;4.68;4.47;;;15.80;50.00;;;;;;20479;6857;338067;-81
2022/06/01 03:21:40;;;;;;;4.60;4.30;;;16.00;50.40;;;;;;20696;6857;117838;-81
2022/06/01 03:24:08;;;;;;;4.47;4.23;;;15.90;50.20;;;;;;20711;6859;117728;-82
2022/06/01 03:26:33;;;;;;;4.80;4.53;;;15.60;50.30;;;;;;20473;6859;468378;-80
2022/06/01 03:28:58;;;;;;;5.10;4.73;;;15.80;50.80;;;;;;20717;6861;121119;-80
2022/06/01 03:31:24;;;;;;;4.62;4.28;;;15.70;50.50;;;;;;20736;6846;120437;-81
2022/06/01 03:33:49;;;;;;;4.32;4.12;;;15.40;50.80;;;;;;20759;6846;120613;-80
2022/06/01 03:36:15;;;;;;;4.00;3.70;;;15.20;51.00;;;;;;20702;6846;118846;-81
2022/06/01 03:38:42;;;;;;;4.57;4.27;;;15.00;51.20;;;;;;20717;6859;117941;-81
2022/06/01 03:41:08;;;;;;;4.83;4.53;;;14.90;51.40;;;;;;20706;6859;117454;-81
2022/06/01 03:46:22;;;;;;;4.30;4.10;;;15.10;52.20;;;;;;20695;6859;117741;-80
2022/06/01 03:48:48;;;;;;;4.83;4.63;;;15.10;52.50;;;;;;20690;6859;122605;-82
2022/06/01 03:51:13;;;;;;;4.97;4.67;;;15.10;52.00;;;;;;20509;6859;278677;-80
2022/06/01 03:53:39;;;;;;;5.25;4.97;;;15.30;52.00;;;;;;20501;6859;307509;-80
2022/06/01 03:56:07;;;;;;;4.70;4.40;;;15.70;51.40;;;;;;20712;6859;117518;-81
2022/06/01 03:58:30;;;;;;;5.35;4.95;;;15.70;51.00;;;;;;20463;6859;308434;-81
2022/06/01 04:00:55;;;;;;;6.00;5.60;;;15.80;51.70;;;;;;20471;6859;279426;-80
2022/06/01 04:03:21;;;;;;;6.80;6.40;;;16.10;50.50;;;;;;20494;6859;279706;-81
2022/06/01 04:05:47;;;;;;;6.40;6.00;;;16.30;50.10;;;;;;20683;6859;117641;-80
2022/06/01 04:08:12;;;;;;;5.75;5.37;;;16.10;50.00;;;;;;20505;6859;310717;-80
2022/06/01 04:10:38;;;;;;;5.80;5.50;;;16.10;50.10;;;;;;20473;6859;279025;-80
2022/06/01 04:13:03;;;;;;;5.60;5.30;;;16.30;49.60;;;;;;20471;6859;311043;-81
2022/06/01 04:15:29;;;;;;;5.00;4.70;;;16.50;49.30;;;;;;20706;6857;120107;-81
2022/06/01 04:17:54;;;;;;;5.07;4.70;;;16.20;49.30;;;;;;20704;6858;120318;-80
2022/06/01 04:20:20;;;;;;;4.80;4.50;;;15.90;49.90;;;;;;20664;6858;118419;-80
2022/06/01 04:22:47;;;;;;;4.95;4.75;;;15.40;51.20;;;;;;20721;6858;117507;-80
2022/06/01 04:25:13;;;;;;;5.70;5.40;;;15.40;50.70;;;;;;20494;6858;302970;-80
2022/06/01 04:27:39;;;;;;;6.15;5.75;;;15.60;51.10;;;;;;20490;6858;278558;-80
2022/06/01 04:30:04;;;;;;;5.20;4.90;;;15.90;50.70;;;;;;20683;6858;116418;-80
2022/06/01 04:32:35;;;;;;;5.63;5.30;;;15.90;50.60;;;;;;20434;6858;278106;-78
2022/06/01 04:35:00;;;;;;;5.10;4.70;;;15.90;51.20;;;;;;20704;6859;117290;-80
2022/06/01 04:37:26;;;;;;;4.43;4.13;;;15.90;50.60;;;;;;20706;6859;117489;-80
2022/06/01 04:39:52;;;;;;;4.70;4.40;;;15.70;50.90;;;;;;20696;6859;118046;-80
2022/06/01 04:42:17;;;;;;;4.83;4.47;;;15.50;51.20;;;;;;20480;6859;324462;-80
2022/06/01 04:44:44;;;;;;;4.50;4.20;;;15.80;51.20;;;;;;20709;6859;118591;-80
2022/06/01 04:47:10;;;;;;;4.37;4.07;;;15.70;51.10;;;;;;20703;6859;117277;-80
2022/06/01 04:49:35;;;;;;;4.45;4.15;;;15.60;51.20;;;;;;20495;6859;308657;-80
2022/06/01 04:52:00;;;;;;;4.60;4.17;;;15.80;51.40;;;;;;20701;6859;119412;-80
2022/06/01 04:54:26;;;;;;;5.20;4.80;;;15.80;51.60;;;;;;20695;6859;151980;-80
2022/06/01 04:56:52;;;;;;;4.60;4.30;;;15.60;51.30;;;;;;20485;6859;338132;-80
2022/06/01 04:59:18;;;;;;;4.80;4.40;;;15.80;51.50;;;;;;20708;6859;117280;-80
2022/06/01 05:01:47;;;;;;;5.23;4.77;;;15.90;51.20;;;;;;20497;6859;281127;-80
2022/06/01 05:04:12;;;;;;;5.10;4.80;;;16.10;51.20;;;;;;20711;6859;119742;-80
2022/06/01 05:06:38;;;;;;;5.27;4.97;;;16.10;50.90;;;;;;20478;6859;310153;-80
2022/06/01 05:09:03;;;;;;;4.90;4.65;;;16.30;50.60;;;;;;20492;6859;288612;-80
2022/06/01 05:11:29;;;;;;;5.20;4.90;;;16.60;50.00;;;;;;20501;6859;279020;-80
2022/06/01 05:13:54;;;;;;;4.75;4.45;;;16.90;49.70;;;;;;20476;6858;337659;-80
2022/06/01 05:16:21;;;;;;;4.20;4.00;;;17.10;49.20;;;;;;20682;6859;118993;-78
2022/06/01 05:18:47;;;;;;;4.03;3.80;;;16.70;49.70;;;;;;20714;6859;120789;-80
2022/06/01 05:21:13;;;;;;;4.67;4.37;;;16.70;49.60;;;;;;20716;6859;117795;-78
2022/06/01 05:23:38;;;;;;;4.80;4.50;;;16.50;50.00;;;;;;20499;6859;339106;-78
2022/06/01 05:26:04;;;;;;;5.07;4.57;;;16.70;50.20;;;;;;20738;6857;69391;-79
2022/06/01 05:28:30;;;;;;;4.60;4.30;;;16.60;50.00;;;;;;20493;6858;278354;-79
2022/06/01 05:30:58;;;;;;;4.25;4.00;;;16.80;49.90;;;;;;20498;6858;308692;-80
2022/06/01 05:33:25;;;;;;;4.30;3.97;;;17.10;49.60;;;;;;20700;6858;117160;-79
2022/06/01 05:35:51;;;;;;;4.30;3.90;;;17.00;49.50;;;;;;20485;6858;330129;-78
2022/06/01 05:38:16;;;;;;;3.90;3.70;;;17.10;49.60;;;;;;20503;6857;340524;-78
2022/06/01 05:40:42;;;;;;;3.37;3.22;;;17.40;48.80;;;;;;20672;6875;117625;-79
2022/06/01 05:43:08;;;;;;;3.47;3.28;;;17.30;48.90;;;;;;20665;6876;123020;-79
2022/06/01 05:45:33;;;;;;;3.30;3.10;;;17.00;49.20;;;;;;20646;6876;117394;-79
2022/06/01 05:47:59;;;;;;;4.40;2.97;;;16.90;49.50;;;;;;20675;6873;119960;-79
2022/06/01 05:50:26;;;;;;;2.80;2.60;;;16.80;49.50;;;;;;20703;6859;119532;-78
2022/06/01 05:52:51;;;;;;;3.33;3.00;;;16.70;49.40;;;;;;20714;6859;117883;-79
2022/06/01 05:55:17;;;;;;;3.30;3.10;;;16.60;49.30;;;;;;20511;6859;309073;-79
2022/06/01 05:57:43;;;;;;;2.93;2.73;;;17.20;48.70;;;;;;20699;6859;117306;-83
2022/06/01 06:00:10;;;;;;;2.60;2.50;;;17.10;48.50;;;;;;20711;6859;119532;-77
2022/06/01 06:02:35;;;;;;;2.77;2.60;;;17.20;48.70;;;;;;20700;6859;123032;-78
2022/06/01 06:05:02;;;;;;;2.97;2.67;;;17.30;49.00;;;;;;20479;6859;308987;-78
2022/06/01 06:07:28;;;;;;;2.60;2.50;;;17.70;47.20;;;;;;20475;6859;281016;-78
2022/06/01 06:09:55;;;;;;;2.70;2.50;;;18.40;46.00;;;;;;20484;6859;281143;-78
2022/06/01 06:12:21;;;;;;;2.97;2.83;;;19.10;45.40;;;;;;20474;6859;308895;-79
2022/06/01 06:14:49;;;;;;;3.00;2.70;;;19.80;45.00;;;;;;20503;6859;279105;-78
2022/06/01 06:17:13;;;;;;;3.00;2.70;;;20.60;43.60;;;;;;20501;6859;308054;-78
2022/06/01 06:19:40;;;;;;;2.80;2.70;;;21.40;42.40;;;;;;20507;6859;308191;-78
2022/06/01 06:22:06;;;;;;;2.80;2.60;;;22.20;41.80;;;;;;20661;6859;117690;-78
2022/06/01 06:24:31;;;;;;;2.70;2.50;;;22.60;42.60;;;;;;20695;6859;119908;-79
2022/06/01 06:26:58;;;;;;;3.10;2.77;;;22.80;43.20;;;;;;20713;6859;118654;-79
2022/06/01 06:29:23;;;;;;;3.20;2.80;;;23.10;43.40;;;;;;20508;6859;281034;-82
2022/06/01 06:31:50;;;;;;;2.70;2.50;;;23.80;40.20;;;;;;20507;6859;280909;-80
2022/06/01 06:34:16;;;;;;;2.77;2.50;;;24.60;38.70;;;;;;20493;6859;278945;-82
2022/06/01 06:36:44;;;;;;;2.70;2.50;;;25.30;37.90;;;;;;20501;6859;279984;-80
2022/06/01 06:39:08;;;;;;;2.50;2.40;;;25.90;36.80;;;;;;20717;6858;116272;-81
2022/06/01 06:41:33;;;;;;;2.30;2.20;;;25.90;37.70;;;;;;20717;6858;119857;-81
2022/06/01 06:44:00;;;;;;;2.80;2.60;;;25.90;38.50;;;;;;20718;6858;118445;-80
2022/06/01 06:46:24;;;;;;;2.62;2.53;;;25.80;38.90;;;;;;20488;6858;310419;-80
2022/06/01 06:48:50;;;;;;;4.90;2.50;;;26.40;36.30;;;;;;20721;6858;123518;-79
2022/06/01 06:51:16;;;;;;;2.40;2.30;;;26.60;37.00;;;;;;20509;6858;307396;-81
2022/06/01 06:53:41;;;;;;;2.20;2.10;;;27.00;35.50;;;;;;20717;6858;117199;-82
2022/06/01 06:56:07;;;;;;;2.37;2.20;;;27.20;36.00;;;;;;20719;6858;121381;-81
2022/06/01 06:58:32;;;;;;;2.50;2.30;;;27.10;36.50;;;;;;20490;6859;308578;-81
2022/06/01 07:00:58;;;;;;;2.43;2.23;;;27.50;35.00;;;;;;20708;6859;116507;-80
2022/06/01 07:03:24;;;;;;;2.28;2.10;;;27.60;35.40;;;;;;20508;6859;279511;-80
2022/06/01 07:06:12;;;;;;;2.47;2.37;;;27.70;33.90;;;;;;20718;6859;117432;-80
2022/06/01 07:08:35;;;;;;;2.20;2.00;;;27.60;34.50;;;;;;20677;6859;117572;-82
2022/06/01 07:11:01;;;;;;;3.50;2.33;;;27.30;35.10;;;;;;20481;6859;325722;-81
2022/06/01 07:13:29;;;;;;;2.60;2.40;;;27.40;34.40;;;;;;20715;6859;121237;-78
2022/06/01 07:16:06;;;;;;;2.60;2.50;;;27.40;34.80;;;;;;20707;6859;117551;-78
2022/06/01 07:18:31;;;;;;;2.80;2.60;;;27.10;35.00;;;;;;20703;6859;120048;-79
2022/06/01 07:20:58;;;;;;;3.20;2.40;;;26.80;35.60;;;;;;20508;6859;285766;-79
2022/06/01 07:23:22;;;;;;;3.67;2.70;;;26.80;34.60;;;;;;20709;6859;119795;-79
2022/06/01 07:25:48;;;;;;;3.17;2.60;;;26.70;35.10;;;;;;20492;6859;311039;-79
2022/06/01 07:28:14;;;;;;;2.70;2.50;;;26.70;35.30;;;;;;20715;6859;117234;-80
2022/06/01 07:30:41;;;;;;;3.37;2.60;;;26.40;35.20;;;;;;20527;6859;118766;-79
2022/06/01 07:33:06;;;;;;;3.57;2.70;;;26.30;35.60;;;;;;20519;6859;306939;-80
2022/06/01 07:35:32;;;;;;;2.77;2.57;;;26.40;36.50;;;;;;20767;6859;121317;-82
2022/06/01 07:43:29;;;;;;;3.10;2.50;;;25.80;36.80;;;;;;20675;6876;117505;-78
2022/06/01 07:45:56;;;;;;;2.70;2.60;;;25.60;37.10;;;;;;20670;6876;120681;-78
2022/06/01 07:48:22;;;;;;;2.70;2.40;;;25.50;37.40;;;;;;20676;6862;119566;-78
2022/06/01 07:50:47;;;;;;;2.40;2.30;;;25.40;37.20;;;;;;20703;6854;120895;-79
2022/06/01 07:53:13;;;;;;;5.17;2.60;;;25.40;37.20;;;;;;20695;6856;113189;-79
2022/06/01 07:55:38;;;;;;;3.77;2.30;;;25.40;37.30;;;;;;20739;6852;118037;-82
2022/06/01 07:58:04;;;;;;;2.67;2.47;;;25.30;37.40;;;;;;20734;6852;118619;-79
2022/06/01 08:00:29;;;;;;;2.67;2.47;;;25.30;37.30;;;;;;20513;6852;308642;-81
2022/06/01 08:02:55;;;;;;;4.05;3.75;;;25.60;36.90;;;;;;20734;6852;120084;-78
2022/06/01 08:05:21;;;;;;;3.77;2.60;;;25.80;36.90;;;;;;20719;6852;119610;-81
2022/06/01 08:07:46;;;;;;;2.30;2.20;;;25.80;37.10;;;;;;20477;6867;279736;-78
2022/06/01 08:10:12;;;;;;;2.55;2.35;;;26.10;36.90;;;;;;20679;6871;122722;-77
2022/06/01 08:15:24;;;;;;;3.03;2.30;;;26.50;35.50;;;;;;20690;6867;119589;-80
2022/06/01 08:17:49;;;;;;;1.67;1.67;;;26.60;35.50;;;;;;20701;6861;122558;-79
2022/06/01 08:20:15;;;;;;;2.07;1.87;;;26.60;35.50;;;;;;20680;6861;118747;-80
2022/06/01 08:22:40;;;;;;;1.90;1.80;;;26.50;35.40;;;;;;20697;6865;124994;-80
2022/06/01 08:25:06;;;;;;;1.73;1.60;;;26.50;35.20;;;;;;20695;6865;119760;-80
2022/06/01 08:27:31;;;;;;;2.07;1.80;;;26.50;34.50;;;;;;20472;6865;298532;-82
2022/06/01 08:29:58;;;;;;;2.15;1.67;;;26.90;32.30;;;;;;20702;6865;116387;-78
2022/06/01 08:32:23;;;;;;;1.40;1.30;;;26.90;32.20;;;;;;20675;6865;142511;-81
2022/06/01 08:34:49;;;;;;;1.63;1.53;;;26.80;32.20;;;;;;20697;6865;119800;-80
2022/06/01 08:37:16;;;;;;;1.98;1.60;;;26.80;32.70;;;;;;20478;6865;309258;-81
2022/06/01 08:39:41;;;;;;;1.67;1.57;;;27.10;29.90;;;;;;20708;6865;123324;-78
2022/06/01 08:42:07;;;;;;;2.47;1.70;;;27.20;30.00;;;;;;20502;6860;310883;-80
2022/06/01 08:44:32;;;;;;;3.43;1.87;;;27.40;29.30;;;;;;20664;6860;120968;-78
2022/06/01 08:46:58;;;;;;;1.50;1.40;;;27.20;29.40;;;;;;20537;6845;278985;-79
2022/06/01 08:49:24;;;;;;;4.20;1.30;;;27.10;29.00;;;;;;20472;6860;308675;-79
2022/06/01 08:51:49;;;;;;;1.50;1.40;;;27.30;28.60;;;;;;20482;6860;308762;-80
2022/06/01 08:54:15;;;;;;;1.53;1.40;;;27.60;27.10;;;;;;20672;6864;119523;-81
2022/06/01 08:56:44;;;;;;;1.50;1.40;;;27.60;28.20;;;;;;20502;6860;278634;-80
2022/06/01 08:59:26;;;;;;;1.20;1.17;;;27.60;26.20;;;;;;20671;6860;120435;-79
2022/06/01 09:02:14;;;;;;;1.27;1.17;;;27.60;27.20;;;;;;20676;6858;122355;-78
2022/06/01 09:05:07;;;;;;;2.50;1.17;;;27.40;27.90;;;;;;20492;6860;280344;-80
2022/06/01 09:07:52;;;;;;;1.37;1.13;;;27.60;26.80;;;;;;20709;6852;122118;-81
2022/06/01 09:10:24;;;;;;;2.50;1.30;;;27.70;27.70;;;;;;20441;6858;306742;-80
2022/06/01 09:12:50;;;;;;;1.83;1.30;;;27.70;28.40;;;;;;20701;6861;117243;-82
2022/06/01 09:15:22;;;;;;;1.60;1.30;;;27.70;27.80;;;;;;20469;6861;340702;-79
2022/06/01 09:17:48;;;;;;;1.40;1.20;;;27.80;27.10;;;;;;20468;6861;309995;-79
2022/06/01 09:22:59;;;;;;;1.20;1.10;;;28.00;26.80;;;;;;20780;6837;120063;-82
2022/06/01 09:25:32;;;;;;;2.40;1.23;;;27.80;26.80;;;;;;20739;6846;119666;-80
2022/06/01 09:27:59;;;;;;;4.50;1.33;;;27.60;27.00;;;;;;20708;6846;117972;-80
2022/06/01 09:30:20;;;;;;;6.17;1.70;;;27.50;27.40;;;;;;20721;6846;117441;-82
2022/06/01 09:33:13;;;;;;;2.37;1.10;;;27.60;27.30;;;;;;20544;6846;279883;-82
2022/06/01 09:35:38;;;;;;;1.37;1.33;;;27.80;25.70;;;;;;20734;6846;117741;-79
2022/06/01 09:38:04;;;;;;;1.00;1.00;;;28.00;26.10;;;;;;20698;6847;117330;-79
2022/06/01 09:40:33;;;;;;;1.17;1.02;;;27.90;26.30;;;;;;20461;6846;302869;-78
2022/06/01 09:43:01;;;;;;;1.07;1.03;;;28.10;24.20;;;;;;20486;6860;279201;-80
2022/06/01 09:45:27;;;;;;;1.30;1.20;;;28.40;24.70;;;;;;20677;6870;122948;-77
2022/06/01 09:47:52;;;;;;;2.20;1.20;;;28.50;25.30;;;;;;20662;6868;119839;-77
2022/06/01 09:50:21;;;;;;;4.05;1.30;;;28.40;25.40;;;;;;20495;6854;279556;-77
2022/06/01 09:52:48;;;;;;;1.37;1.27;;;28.60;25.70;;;;;;20668;6866;117306;-78
2022/06/01 09:55:21;;;;;;;1.10;1.00;;;28.80;25.80;;;;;;20513;6851;307807;-79
2022/06/01 09:58:00;;;;;;;2.70;1.40;;;29.00;24.90;;;;;;20679;6867;119002;-79
2022/06/01 10:06:06;;;;;;;1.83;1.27;;;28.50;24.20;;;;;;20725;6851;117497;-78
2022/06/01 10:08:33;;;;;;;1.40;1.10;;;28.40;25.40;;;;;;20469;6867;279595;-77
2022/06/01 10:11:04;;;;;;;1.42;1.12;;;28.50;25.20;;;;;;20530;6851;337701;-80
2022/06/01 10:13:33;;;;;;;1.80;1.13;;;28.80;24.80;;;;;;20722;6850;114793;-78
2022/06/01 10:15:58;;;;;;;1.27;1.17;;;28.90;25.20;;;;;;20503;6851;278399;-79
2022/06/01 10:18:24;;;;;;;1.60;0.90;;;28.90;24.50;;;;;;20693;6851;117562;-79
2022/06/01 10:20:59;;;;;;;1.20;1.10;;;28.90;24.70;;;;;;20514;6851;280137;-79
2022/06/01 10:23:30;;;;;;;1.10;1.10;;;29.00;24.60;;;;;;20700;6851;121044;-78
2022/06/01 10:25:56;;;;;;;1.00;1.00;;;28.90;24.90;;;;;;20476;6851;278494;-83
2022/06/01 10:28:31;;;;;;;3.05;1.30;;;29.00;24.20;;;;;;20491;6851;308993;-80
2022/06/01 10:30:56;;;;;;;1.40;1.30;;;29.20;24.10;;;;;;20519;6851;278110;-81
2022/06/01 10:33:22;;;;;;;1.90;1.20;;;29.20;23.60;;;;;;20541;6851;308136;-80
2022/06/01 10:36:04;;;;;;;1.20;1.20;;;29.20;24.20;;;;;;20719;6851;117438;-80
2022/06/01 10:38:30;;;;;;;4.00;1.40;;;29.00;24.30;;;;;;20688;6851;120178;-80
2022/06/01 10:41:02;;;;;;;1.43;1.30;;;28.70;24.80;;;;;;20722;6851;119763;-81
2022/06/01 10:43:50;;;;;;;1.57;1.40;;;28.30;25.20;;;;;;20720;6851;119530;-80
2022/06/01 10:46:26;;;;;;;1.30;1.20;;;28.10;25.10;;;;;;20553;6851;283369;-81
2022/06/01 10:49:02;;;;;;;1.53;1.30;;;28.10;24.80;;;;;;20367;6851;307173;-79
2022/06/01 10:51:27;;;;;;;1.23;1.20;;;28.40;24.30;;;;;;20713;6851;123833;-80
2022/06/01 10:54:26;;;;;;;1.27;1.20;;;28.30;24.90;;;;;;20506;6851;307718;-80
2022/06/01 10:56:55;;;;;;;1.80;1.27;;;28.30;24.70;;;;;;20519;6851;308133;-79
2022/06/01 10:59:23;;;;;;;1.27;1.20;;;28.50;24.30;;;;;;20739;6851;119837;-79
2022/06/01 11:02:09;;;;;;;1.50;1.40;;;28.40;24.80;;;;;;20531;6851;278581;-79
2022/06/01 11:04:40;;;;;;;1.10;1.10;;;28.50;25.20;;;;;;20515;6851;280942;-79
2022/06/01 11:07:09;;;;;;;1.40;1.30;;;28.70;24.10;;;;;;20532;6851;307638;-79
2022/06/01 11:09:45;;;;;;;1.43;1.23;;;28.90;24.10;;;;;;20446;6851;308779;-79
2022/06/01 11:12:26;;;;;;;1.40;1.30;;;29.00;24.60;;;;;;20696;6851;116775;-80
2022/06/01 11:15:07;;;;;;;1.37;1.27;;;28.80;24.80;;;;;;20517;6851;306161;-76
2022/06/01 11:17:36;;;;;;;1.33;1.20;;;28.70;25.20;;;;;;20472;6851;308909;-80
2022/06/01 11:20:28;;;;;;;1.17;1.07;;;28.80;24.60;;;;;;20710;6851;117836;-79
2022/06/01 11:23:20;;;;;;;1.20;1.10;;;28.70;24.80;;;;;;20738;6851;68868;-78
2022/06/01 11:26:23;;;;;;;2.63;1.50;;;28.20;25.30;;;;;;20750;6850;117133;-77
2022/06/01 11:29:07;;;;;;;1.10;1.05;;;27.90;26.00;;;;;;20539;6851;317205;-77
2022/06/01 11:31:30;;;;;;;1.03;0.90;;;28.00;25.70;;;;;;20734;6851;119464;-80
2022/06/01 11:33:57;;;;;;;1.70;1.47;;;27.90;25.80;;;;;;20730;6851;119968;-79
2022/06/01 11:36:36;;;;;;;1.77;1.07;;;27.80;26.10;;;;;;20502;6851;296615;-79
2022/06/01 11:39:28;;;;;;;1.30;1.20;;;27.90;25.20;;;;;;20519;6851;301826;-79
2022/06/01 11:42:03;;;;;;;1.20;1.10;;;28.20;24.40;;;;;;20728;6851;117544;-79
2022/06/01 11:44:35;;;;;;;1.27;1.10;;;28.10;24.50;;;;;;20494;6851;306659;-78
2022/06/01 11:47:01;;;;;;;1.93;1.13;;;28.10;23.70;;;;;;20728;6851;119550;-79
2022/06/01 11:49:40;;;;;;;1.20;1.10;;;27.70;22.80;;;;;;20521;6851;342086;-79
2022/06/01 11:52:22;;;;;;;1.10;1.00;;;27.70;22.70;;;;;;20732;6851;119948;-82
2022/06/01 11:55:14;;;;;;;1.55;1.02;;;27.50;23.50;;;;;;20524;6851;307775;-80
2022/06/01 11:57:50;;;;;;;0.97;0.97;;;27.60;24.20;;;;;;20742;6851;120414;-79
2022/06/01 12:00:35;;;;;;;1.23;1.13;;;27.50;24.60;;;;;;20732;6851;121521;-77
2022/06/01 12:03:17;;;;;;;0.93;0.93;;;27.20;24.70;;;;;;20723;6851;117602;-78
2022/06/01 12:06:06;;;;;;;1.15;1.10;;;27.00;24.90;;;;;;20527;6851;310022;-77
2022/06/01 12:08:40;;;;;;;1.70;1.23;;;27.10;24.50;;;;;;20510;6851;333726;-77
2022/06/01 12:11:06;;;;;;;1.73;1.13;;;27.40;24.40;;;;;;20741;6851;120469;-77
2022/06/01 12:13:38;;;;;;;1.30;1.30;;;27.20;24.50;;;;;;20734;6851;117745;-77
2022/06/01 12:16:05;;;;;;;1.20;1.10;;;26.60;25.00;;;;;;20699;6851;120115;-79
2022/06/01 12:18:31;;;;;;;1.10;1.00;;;26.60;25.20;;;;;;20490;6851;296080;-80
2022/06/01 12:21:16;;;;;;;0.83;0.83;;;26.60;24.20;;;;;;20735;6851;119173;-81
2022/06/01 12:29:19;;;;;;;3.73;1.30;;;26.40;26.00;;;;;;20524;6851;308252;-82
2022/06/01 12:31:55;;;;;;;3.70;1.60;;;26.70;25.30;;;;;;20474;6851;338120;-78
2022/06/01 12:34:24;;;;;;;1.20;1.10;;;27.10;24.80;;;;;;20641;6851;119550;-80
2022/06/01 12:37:16;;;;;;;1.20;1.10;;;27.10;24.80;;;;;;20516;6849;330126;-80
2022/06/01 12:39:41;;;;;;;1.50;1.27;;;27.20;24.90;;;;;;20305;6851;285329;-80
2022/06/01 12:42:17;;;;;;;2.42;1.45;;;27.50;25.10;;;;;;20507;6851;310555;-78
2022/06/01 12:44:43;;;;;;;1.90;1.20;;;27.50;24.20;;;;;;20527;6851;308504;-77
2022/06/01 12:47:09;;;;;;;1.10;1.10;;;27.70;23.60;;;;;;20516;6851;337325;-78
2022/06/01 12:49:37;;;;;;;1.55;1.27;;;27.80;24.60;;;;;;20675;6851;115225;-77
2022/06/01 12:52:04;;;;;;;2.30;1.30;;;27.60;24.70;;;;;;20531;6851;307986;-77
2022/06/01 12:54:32;;;;;;;2.43;1.23;;;27.70;25.30;;;;;;20495;6851;337139;-79
2022/06/01 12:56:58;;;;;;;1.50;1.30;;;28.00;25.20;;;;;;20523;6851;279459;-77
2022/06/01 12:59:23;;;;;;;1.50;1.40;;;28.20;25.20;;;;;;20530;6851;307215;-78
2022/06/01 13:01:50;;;;;;;1.70;1.30;;;28.50;25.50;;;;;;20742;6851;120697;-78
2022/06/01 13:04:22;;;;;;;4.07;2.63;;;28.20;24.80;;;;;;20721;6851;119553;-77
2022/06/01 13:06:46;;;;;;;1.53;1.03;;;28.20;24.70;;;;;;20421;6850;122446;-79
2022/06/01 13:09:13;;;;;;;1.73;1.30;;;27.90;25.20;;;;;;20539;6850;292249;-77
2022/06/01 13:11:39;;;;;;;1.48;1.30;;;28.00;25.20;;;;;;20452;6868;343035;-77